createdAt,value
2022-08-25T00:02:08.983Z,20.06
2022-08-25T00:04:37.510Z,20.00
2022-08-25T00:07:06.588Z,20.13
2022-08-25T00:09:35.993Z,20.00
2022-08-25T00:12:05.245Z,20.06
2022-08-25T00:14:37.036Z,20.19
2022-08-25T00:17:06.280Z,20.19
2022-08-25T00:19:37.992Z,20.13
2022-08-25T00:22:08.049Z,20.06
2022-08-25T00:24:35.609Z,20.13
2022-08-25T00:27:04.030Z,20.13
2022-08-25T00:29:33.084Z,19.94
2022-08-25T00:32:01.340Z,19.88
2022-08-25T00:34:34.782Z,19.94
2022-08-25T00:37:07.259Z,19.94
2022-08-25T00:39:35.482Z,19.75
2022-08-25T00:42:04.365Z,19.88
2022-08-25T00:44:38.319Z,20.00
2022-08-25T00:47:07.397Z,20.13
2022-08-25T00:49:45.257Z,20.06
2022-08-25T00:52:22.792Z,19.81
2022-08-25T00:54:53.142Z,19.94
2022-08-25T00:57:34.963Z,19.81
2022-08-25T01:00:11.157Z,19.56
2022-08-25T01:02:39.842Z,19.75
2022-08-25T01:05:07.874Z,19.75
2022-08-25T01:07:35.588Z,19.81
2022-08-25T01:10:03.587Z,19.88
2022-08-25T01:12:31.124Z,19.88
2022-08-25T01:14:59.386Z,19.81
2022-08-25T01:17:28.309Z,19.75
2022-08-25T01:19:55.962Z,19.81
2022-08-25T01:22:26.806Z,19.75
2022-08-25T01:25:18.762Z,19.69
2022-08-25T01:27:46.184Z,19.63
2022-08-25T01:30:13.536Z,19.63
2022-08-25T01:32:41.290Z,19.56
2022-08-25T01:35:09.144Z,19.63
2022-08-25T01:37:36.533Z,19.44
2022-08-25T01:40:06.277Z,19.56
2022-08-25T01:43:07.732Z,19.50
2022-08-25T01:45:36.671Z,19.38
2022-08-25T01:48:06.999Z,19.63
2022-08-25T01:50:34.931Z,19.56
2022-08-25T01:53:33.493Z,19.63
2022-08-25T01:56:11.564Z,19.56
2022-08-25T01:58:44.746Z,19.38
2022-08-25T02:01:32.361Z,19.38
2022-08-25T02:03:59.918Z,19.38
2022-08-25T02:06:34.213Z,19.44
2022-08-25T02:09:10.216Z,19.44
2022-08-25T02:11:41.128Z,19.13
2022-08-25T02:14:09.890Z,19.19
2022-08-25T02:16:39.642Z,19.38
2022-08-25T02:19:10.579Z,19.38
2022-08-25T02:21:38.309Z,19.38
2022-08-25T02:24:06.534Z,19.31
2022-08-25T02:26:34.179Z,19.31
2022-08-25T02:29:01.481Z,19.25
2022-08-25T02:31:29.339Z,19.25
2022-08-25T02:33:57.547Z,19.25
2022-08-25T02:36:24.973Z,19.44
2022-08-25T02:38:52.888Z,19.50
2022-08-25T02:41:31.412Z,19.31
2022-08-25T02:44:01.030Z,19.25
2022-08-25T02:46:29.000Z,19.25
2022-08-25T02:48:56.559Z,19.31
2022-08-25T02:51:26.206Z,19.19
2022-08-25T02:53:53.541Z,19.31
2022-08-25T02:56:21.295Z,19.25
2022-08-25T02:58:48.815Z,19.25
2022-08-25T03:01:17.331Z,19.25
2022-08-25T03:03:47.812Z,19.25
2022-08-25T03:06:19.452Z,19.19
2022-08-25T03:08:47.208Z,19.19
2022-08-25T03:11:14.638Z,19.13
2022-08-25T03:13:42.104Z,19.00
2022-08-25T03:16:11.096Z,19.00
2022-08-25T03:18:42.244Z,19.13
2022-08-25T03:21:11.693Z,19.19
2022-08-25T03:23:40.701Z,19.06
2022-08-25T03:26:27.341Z,19.06
2022-08-25T03:28:57.656Z,18.94
2022-08-25T03:31:28.001Z,19.06
2022-08-25T03:33:56.222Z,19.19
2022-08-25T03:36:24.572Z,19.06
2022-08-25T03:39:00.488Z,19.19
2022-08-25T03:41:32.583Z,19.00
2022-08-25T03:44:02.215Z,19.06
2022-08-25T03:46:38.837Z,18.94
2022-08-25T03:49:10.436Z,18.88
2022-08-25T03:51:50.155Z,19.00
2022-08-25T03:54:21.651Z,19.00
2022-08-25T03:56:49.048Z,19.00
2022-08-25T03:59:16.808Z,18.94
2022-08-25T04:01:49.227Z,19.00
2022-08-25T04:04:18.790Z,19.06
2022-08-25T04:06:47.206Z,19.13
2022-08-25T04:09:14.455Z,18.88
2022-08-25T04:11:42.653Z,18.69
2022-08-25T04:14:12.995Z,18.69
2022-08-25T04:16:43.560Z,18.81
2022-08-25T04:19:11.452Z,18.75
2022-08-25T04:21:40.774Z,18.88
2022-08-25T04:24:11.705Z,18.81
2022-08-25T04:26:44.475Z,18.81
2022-08-25T04:29:14.550Z,18.63
2022-08-25T04:31:46.924Z,18.81
2022-08-25T04:34:29.633Z,18.81
2022-08-25T04:37:01.589Z,18.44
2022-08-25T04:39:29.517Z,18.75
2022-08-25T04:41:57.501Z,18.69
2022-08-25T04:44:25.536Z,18.75
2022-08-25T04:46:52.997Z,18.81
2022-08-25T04:49:20.252Z,18.75
2022-08-25T04:51:48.024Z,18.88
2022-08-25T04:54:21.612Z,19.00
2022-08-25T04:56:54.157Z,18.94
2022-08-25T04:59:23.942Z,19.00
2022-08-25T05:01:58.870Z,19.06
2022-08-25T05:04:28.410Z,19.25
2022-08-25T05:06:57.261Z,19.13
2022-08-25T05:09:25.654Z,19.13
2022-08-25T05:11:53.924Z,19.19
2022-08-25T05:14:26.274Z,19.38
2022-08-25T05:16:55.517Z,19.50
2022-08-25T05:19:24.415Z,19.56
2022-08-25T05:21:52.720Z,19.75
2022-08-25T05:24:21.659Z,19.94
2022-08-25T05:26:49.026Z,19.94
2022-08-25T05:29:17.138Z,19.94
2022-08-25T05:31:50.016Z,20.31
2022-08-25T05:34:19.588Z,20.44
2022-08-25T05:36:48.253Z,20.19
2022-08-25T05:39:15.697Z,20.31
2022-08-25T05:41:43.109Z,20.50
2022-08-25T05:44:10.509Z,20.63
2022-08-25T05:46:37.961Z,20.63
2022-08-25T05:49:05.289Z,20.81
2022-08-25T05:51:32.535Z,20.94
2022-08-25T05:53:59.986Z,21.00
2022-08-25T05:56:27.285Z,21.13
2022-08-25T05:58:54.755Z,21.19
2022-08-25T06:01:45.553Z,21.50
2022-08-25T06:04:15.896Z,21.63
2022-08-25T06:06:43.773Z,21.81
2022-08-25T06:09:11.600Z,22.06
2022-08-25T06:11:40.759Z,22.00
2022-08-25T06:14:10.155Z,22.25
2022-08-25T06:16:39.106Z,22.44
2022-08-25T06:19:08.767Z,22.63
2022-08-25T06:21:39.179Z,22.88
2022-08-25T06:24:09.231Z,22.31
2022-08-25T06:26:39.431Z,22.19
2022-08-25T06:29:06.703Z,22.56
2022-08-25T06:31:34.027Z,22.63
2022-08-25T06:34:01.397Z,22.88
2022-08-25T06:36:28.675Z,23.00
2022-08-25T06:38:55.927Z,23.13
2022-08-25T06:41:23.240Z,23.19
2022-08-25T06:43:55.481Z,23.25
2022-08-25T06:46:35.739Z,23.38
2022-08-25T06:49:04.364Z,23.63
2022-08-25T06:51:31.673Z,23.63
2022-08-25T06:53:59.069Z,23.88
2022-08-25T06:56:26.618Z,24.06
2022-08-25T06:58:53.988Z,24.25
2022-08-25T07:01:27.104Z,24.00
2022-08-25T07:04:00.277Z,24.00
2022-08-25T07:06:31.815Z,24.19
2022-08-25T07:09:00.086Z,24.25
2022-08-25T07:11:27.690Z,24.38
2022-08-25T07:13:55.156Z,24.44
2022-08-25T07:16:22.679Z,24.56
2022-08-25T07:18:56.514Z,24.56
2022-08-25T07:21:33.608Z,24.75
2022-08-25T07:24:07.266Z,24.81
2022-08-25T07:26:38.133Z,24.50
2022-08-25T07:29:33.323Z,24.88
2022-08-25T07:32:02.586Z,25.06
2022-08-25T07:34:51.871Z,25.25
2022-08-25T07:37:48.026Z,25.31
2022-08-25T07:40:22.540Z,25.69
2022-08-25T07:42:52.259Z,25.06
2022-08-25T07:45:21.648Z,25.38
2022-08-25T07:47:51.679Z,25.00
2022-08-25T07:50:20.001Z,25.44
2022-08-25T07:52:52.221Z,25.31
2022-08-25T07:55:26.180Z,26.06
2022-08-25T07:57:57.180Z,26.31
2022-08-25T08:00:28.015Z,26.13
2022-08-25T08:02:56.611Z,26.19
2022-08-25T08:05:25.704Z,26.06
2022-08-25T08:07:54.828Z,26.31
2022-08-25T08:13:16.524Z,26.25
2022-08-25T08:15:45.910Z,26.19
2022-08-25T08:18:13.394Z,26.00
2022-08-25T08:20:46.666Z,26.13
2022-08-25T08:23:14.661Z,26.31
2022-08-25T08:25:42.013Z,26.00
2022-08-25T08:28:10.893Z,26.13
2022-08-25T08:30:38.564Z,26.19
2022-08-25T08:33:12.335Z,26.13
2022-08-25T08:35:41.763Z,25.94
2022-08-25T08:38:16.134Z,26.38
2022-08-25T08:41:40.179Z,25.94
2022-08-25T08:44:46.611Z,25.75
2022-08-25T08:47:52.830Z,26.25
2022-08-25T08:50:35.213Z,26.31
2022-08-25T08:53:35.820Z,26.63
2022-08-25T08:56:11.790Z,26.75
2022-08-25T08:58:45.581Z,26.31
2022-08-25T09:01:28.158Z,26.38
2022-08-25T09:04:24.373Z,27.00
2022-08-25T09:06:52.134Z,27.00
2022-08-25T09:09:36.081Z,26.56
2022-08-25T09:12:25.111Z,26.75
2022-08-25T09:15:23.662Z,26.56
2022-08-25T09:18:14.517Z,26.94
2022-08-25T09:21:10.278Z,26.75
2022-08-25T09:24:17.663Z,26.75
2022-08-25T09:27:10.871Z,27.13
2022-08-25T09:30:05.609Z,27.25
2022-08-25T09:32:48.960Z,27.25
2022-08-25T09:35:26.329Z,26.94
2022-08-25T09:37:57.376Z,27.44
2022-08-25T09:40:27.034Z,27.06
2022-08-25T09:42:58.611Z,26.75
2022-08-25T09:45:47.545Z,27.06
2022-08-25T09:48:26.794Z,27.06
2022-08-25T09:51:16.611Z,27.31
2022-08-25T09:53:56.989Z,27.50
2022-08-25T09:56:29.753Z,27.06
2022-08-25T09:59:17.615Z,27.19
2022-08-25T10:01:58.408Z,27.56
2022-08-25T10:04:32.474Z,27.19
2022-08-25T10:07:01.653Z,27.19
2022-08-25T10:09:38.855Z,27.13
2022-08-25T10:12:27.594Z,27.50
2022-08-25T10:14:55.502Z,27.44
2022-08-25T10:17:34.695Z,27.19
2022-08-25T10:20:11.021Z,27.50
2022-08-25T10:22:44.337Z,27.56
2022-08-25T10:25:22.604Z,27.25
2022-08-25T10:28:24.492Z,27.13
2022-08-25T10:31:34.950Z,27.13
2022-08-25T10:34:38.426Z,27.13
2022-08-25T10:37:54.545Z,26.88
2022-08-25T10:40:52.500Z,27.19
2022-08-25T10:43:36.278Z,27.13
2022-08-25T10:46:43.199Z,27.56
2022-08-25T10:49:20.706Z,27.38
2022-08-25T10:52:02.480Z,27.06
2022-08-25T10:54:43.205Z,27.00
2022-08-25T10:57:41.129Z,27.31
2022-08-25T11:00:22.623Z,27.25
2022-08-25T11:03:30.058Z,27.56
2022-08-25T11:06:18.816Z,27.56
2022-08-25T11:08:55.264Z,27.19
2022-08-25T11:11:39.341Z,27.06
2022-08-25T11:17:24.229Z,27.25
2022-08-25T11:19:59.801Z,27.44
2022-08-25T11:22:41.229Z,27.50
2022-08-25T11:25:37.855Z,27.69
2022-08-25T11:28:39.243Z,27.25
2022-08-25T11:31:10.357Z,27.25
2022-08-25T11:33:39.460Z,27.31
2022-08-25T11:36:31.369Z,27.31
2022-08-25T11:39:34.447Z,27.38
2022-08-25T11:42:36.682Z,27.38
2022-08-25T11:45:31.617Z,27.31
2022-08-25T11:48:11.086Z,27.25
2022-08-25T11:51:00.743Z,27.31
2022-08-25T11:53:42.312Z,27.44
2022-08-25T11:56:34.750Z,27.50
2022-08-25T11:59:03.180Z,27.56
2022-08-25T12:01:45.981Z,27.19
2022-08-25T12:04:44.030Z,27.19
2022-08-25T12:07:17.396Z,27.25
2022-08-25T12:09:51.766Z,27.19
2022-08-25T12:12:31.758Z,27.19
2022-08-25T12:15:42.115Z,27.25
2022-08-25T12:18:22.897Z,27.13
2022-08-25T12:20:58.681Z,27.19
2022-08-25T12:23:45.339Z,27.38
2022-08-25T12:26:31.840Z,27.50
2022-08-25T12:29:21.476Z,27.38
2022-08-25T12:32:07.105Z,27.38
2022-08-25T12:34:39.556Z,27.38
2022-08-25T12:37:17.305Z,27.31
2022-08-25T12:40:01.400Z,27.38
2022-08-25T12:42:36.935Z,27.25
2022-08-25T12:45:44.990Z,27.19
2022-08-25T12:48:27.897Z,27.38
2022-08-25T12:51:18.194Z,27.38
2022-08-25T12:53:58.594Z,27.44
2022-08-25T12:56:42.756Z,27.50
2022-08-25T12:59:47.032Z,27.50
2022-08-25T13:02:51.926Z,27.56
2022-08-25T13:05:55.168Z,27.69
2022-08-25T13:09:20.569Z,27.44
2022-08-25T13:12:18.219Z,27.50
2022-08-25T13:14:57.630Z,27.56
2022-08-25T13:17:33.979Z,27.56
2022-08-25T13:20:25.301Z,27.63
2022-08-25T13:22:58.107Z,27.56
2022-08-25T13:25:32.156Z,27.75
2022-08-25T13:28:04.969Z,27.75
2022-08-25T13:30:37.020Z,27.63
2022-08-25T13:33:22.452Z,27.56
2022-08-25T13:36:16.126Z,27.44
2022-08-25T13:38:46.869Z,27.50
2022-08-25T13:41:29.301Z,27.63
2022-08-25T13:44:00.849Z,27.69
2022-08-25T13:46:29.166Z,27.69
2022-08-25T13:49:08.705Z,27.69
2022-08-25T13:51:38.619Z,27.69
2022-08-25T13:54:09.669Z,27.69
2022-08-25T13:56:42.138Z,27.69
2022-08-25T13:59:43.731Z,27.56
2022-08-25T14:03:12.761Z,27.50
2022-08-25T14:05:45.692Z,27.50
2022-08-25T14:08:41.304Z,27.56
2022-08-25T14:11:28.299Z,27.56
2022-08-25T14:14:08.785Z,27.63
2022-08-25T14:17:22.160Z,27.75
2022-08-25T14:19:56.212Z,27.69
2022-08-25T14:22:23.664Z,27.63
2022-08-25T14:24:54.228Z,27.69
2022-08-25T14:27:21.835Z,27.44
2022-08-25T14:29:52.671Z,27.56
2022-08-25T14:32:20.613Z,27.50
2022-08-25T14:34:47.977Z,27.69
2022-08-25T14:37:20.328Z,27.63
2022-08-25T14:39:54.584Z,27.56
2022-08-25T14:42:22.798Z,27.63
2022-08-25T14:44:52.691Z,27.56
2022-08-25T14:47:20.672Z,27.63
2022-08-25T14:49:49.719Z,27.38
2022-08-25T14:52:22.816Z,27.44
2022-08-25T14:54:50.660Z,27.50
2022-08-25T14:57:18.430Z,27.38
2022-08-25T14:59:46.280Z,27.44
2022-08-25T15:02:20.018Z,27.38
2022-08-25T15:04:56.047Z,27.50
2022-08-25T15:07:42.746Z,27.50
2022-08-25T15:10:13.602Z,27.50
2022-08-25T15:12:48.192Z,27.31
2022-08-25T15:15:21.870Z,27.31
2022-08-25T15:17:50.290Z,27.44
2022-08-25T15:20:17.975Z,27.44
2022-08-25T15:22:45.625Z,27.50
2022-08-25T15:25:12.890Z,27.44
2022-08-25T15:27:40.212Z,27.38
2022-08-25T15:30:09.133Z,27.50
2022-08-25T15:32:40.487Z,27.63
2022-08-25T15:35:08.568Z,27.44
2022-08-25T15:37:36.012Z,27.50
2022-08-25T15:40:06.963Z,27.56
2022-08-25T15:42:36.765Z,27.56
2022-08-25T15:45:04.638Z,27.44
2022-08-25T15:47:32.719Z,27.38
2022-08-25T15:50:14.596Z,27.38
2022-08-25T15:52:46.330Z,27.44
2022-08-25T15:55:15.488Z,27.31
2022-08-25T15:57:43.453Z,27.38
2022-08-25T16:00:13.686Z,27.38
2022-08-25T16:02:45.623Z,27.31
2022-08-25T16:05:16.334Z,27.44
2022-08-25T16:07:46.168Z,27.38
2022-08-25T16:10:19.323Z,27.38
2022-08-25T16:12:47.569Z,27.31
2022-08-25T16:15:16.087Z,27.38
2022-08-25T16:17:45.926Z,27.25
2022-08-25T16:20:17.899Z,27.31
2022-08-25T16:22:45.476Z,26.88
2022-08-25T16:25:13.235Z,26.75
2022-08-25T16:27:40.509Z,26.88
2022-08-25T16:30:14.983Z,26.88
2022-08-25T16:32:46.765Z,26.63
2022-08-25T16:35:14.597Z,26.63
2022-08-25T16:37:41.950Z,26.69
2022-08-25T16:40:14.707Z,26.69
2022-08-25T16:42:42.522Z,26.50
2022-08-25T16:45:10.415Z,26.50
2022-08-25T16:47:38.207Z,26.44
2022-08-25T16:50:11.271Z,26.31
2022-08-25T16:52:58.276Z,26.31
2022-08-25T16:55:39.272Z,26.19
2022-08-25T16:58:08.309Z,26.06
2022-08-25T17:00:40.277Z,26.00
2022-08-25T17:03:08.087Z,25.94
2022-08-25T17:05:42.992Z,25.88
2022-08-25T17:08:29.323Z,25.69
2022-08-25T17:11:14.331Z,25.63
2022-08-25T17:13:47.678Z,25.69
2022-08-25T17:16:18.362Z,25.50
2022-08-25T17:18:48.127Z,25.50
2022-08-25T17:21:24.549Z,25.38
2022-08-25T17:23:53.248Z,25.25
2022-08-25T17:26:28.002Z,25.19
2022-08-25T17:28:59.291Z,25.19
2022-08-25T17:31:27.234Z,25.06
2022-08-25T17:33:55.565Z,25.00
2022-08-25T17:36:25.085Z,25.00
2022-08-25T17:38:56.772Z,24.94
2022-08-25T17:41:24.647Z,24.88
2022-08-25T17:43:52.037Z,24.94
2022-08-25T17:46:19.370Z,24.88
2022-08-25T17:48:46.762Z,24.75
2022-08-25T17:51:16.356Z,24.69
2022-08-25T17:53:44.434Z,24.56
2022-08-25T17:56:17.117Z,24.56
2022-08-25T17:58:47.240Z,24.50
2022-08-25T18:01:30.860Z,24.38
2022-08-25T18:03:59.318Z,24.31
2022-08-25T18:06:32.073Z,24.25
2022-08-25T18:09:01.592Z,24.19
2022-08-25T18:11:30.206Z,24.06
2022-08-25T18:13:58.031Z,24.19
2022-08-25T18:16:27.491Z,24.06
2022-08-25T18:18:56.095Z,24.13
2022-08-25T18:21:25.386Z,23.94
2022-08-25T18:23:57.796Z,23.94
2022-08-25T18:26:26.359Z,23.94
2022-08-25T18:28:53.790Z,24.06
2022-08-25T18:31:21.145Z,23.88
2022-08-25T18:33:50.912Z,23.81
2022-08-25T18:36:21.009Z,23.88
2022-08-25T18:39:18.305Z,23.88
2022-08-25T18:41:46.438Z,23.88
2022-08-25T18:44:15.646Z,23.81
2022-08-25T18:46:43.555Z,23.69
2022-08-25T18:49:15.581Z,23.75
2022-08-25T18:51:45.009Z,23.69
2022-08-25T18:54:22.834Z,23.69
2022-08-25T18:56:53.910Z,23.75
2022-08-25T18:59:23.551Z,23.63
2022-08-25T19:01:53.370Z,23.50
2022-08-25T19:04:20.980Z,23.50
2022-08-25T19:06:55.828Z,23.50
2022-08-25T19:09:23.080Z,23.31
2022-08-25T19:11:50.680Z,23.25
2022-08-25T19:14:22.112Z,23.31
2022-08-25T19:16:51.783Z,23.19
2022-08-25T19:19:20.304Z,23.19
2022-08-25T19:21:48.225Z,23.00
2022-08-25T19:24:16.966Z,23.06
2022-08-25T19:26:45.496Z,23.13
2022-08-25T19:29:17.840Z,22.94
2022-08-25T19:31:48.207Z,23.06
2022-08-25T19:34:21.741Z,23.00
2022-08-25T19:36:50.902Z,22.94
2022-08-25T19:39:18.713Z,22.81
2022-08-25T19:41:47.553Z,22.75
2022-08-25T19:44:15.957Z,22.81
2022-08-25T19:46:45.423Z,22.81
2022-08-25T19:49:22.538Z,22.75
2022-08-25T19:51:52.943Z,22.69
2022-08-25T19:54:29.306Z,22.69
2022-08-25T19:56:58.487Z,22.81
2022-08-25T19:59:40.845Z,22.75
2022-08-25T20:02:19.748Z,22.75
2022-08-25T20:04:56.262Z,22.75
2022-08-25T20:07:28.354Z,22.75
2022-08-25T20:09:56.789Z,22.75
2022-08-25T20:12:27.182Z,22.69
2022-08-25T20:14:55.641Z,22.56
2022-08-25T20:17:26.226Z,22.50
2022-08-25T20:19:59.627Z,22.56
2022-08-25T20:22:33.814Z,22.44
2022-08-25T20:25:13.791Z,22.44
2022-08-25T20:27:47.264Z,22.50
2022-08-25T20:30:34.618Z,22.50
2022-08-25T20:33:02.691Z,22.56
2022-08-25T20:35:30.119Z,22.44
2022-08-25T20:37:58.934Z,22.38
2022-08-25T20:40:30.195Z,22.38
2022-08-25T20:43:03.092Z,22.44
2022-08-25T20:45:30.590Z,22.50
2022-08-25T20:47:57.877Z,22.31
2022-08-25T20:50:25.561Z,22.25
2022-08-25T20:52:56.692Z,22.25
2022-08-25T20:55:24.953Z,22.25
2022-08-25T20:57:53.876Z,22.19
2022-08-25T21:00:23.528Z,22.25
2022-08-25T21:02:52.821Z,22.19
2022-08-25T21:05:20.282Z,22.25
2022-08-25T21:07:47.581Z,22.19
2022-08-25T21:10:16.342Z,22.13
2022-08-25T21:12:45.235Z,22.13
2022-08-25T21:15:18.046Z,22.13
2022-08-25T21:17:51.224Z,22.13
2022-08-25T21:20:18.719Z,22.06
2022-08-25T21:22:46.148Z,22.00
2022-08-25T21:25:14.458Z,22.00
2022-08-25T21:27:41.755Z,22.00
2022-08-25T21:30:12.224Z,22.00
2022-08-25T21:32:39.518Z,21.88
2022-08-25T21:35:21.533Z,21.94
2022-08-25T21:37:53.430Z,21.81
2022-08-25T21:40:23.061Z,21.88
2022-08-25T21:42:51.729Z,21.88
2022-08-25T21:45:20.878Z,21.81
2022-08-25T21:47:49.189Z,21.69
2022-08-25T21:50:16.442Z,21.88
2022-08-25T21:52:43.673Z,21.81
2022-08-25T21:55:16.062Z,21.75
2022-08-25T21:57:44.225Z,21.56
2022-08-25T22:00:13.591Z,21.38
2022-08-25T22:02:44.078Z,21.44
2022-08-25T22:05:11.842Z,21.19
2022-08-25T22:07:44.079Z,21.44
2022-08-25T22:10:16.508Z,21.56
2022-08-25T22:12:46.627Z,21.50
2022-08-25T22:15:16.523Z,21.50
2022-08-25T22:17:48.061Z,21.44
2022-08-25T22:20:17.494Z,21.50
2022-08-25T22:22:44.789Z,21.50
2022-08-25T22:25:13.138Z,21.50
2022-08-25T22:27:40.431Z,21.50
2022-08-25T22:30:08.503Z,21.50
2022-08-25T22:32:36.008Z,21.56
2022-08-25T22:35:03.446Z,21.44
2022-08-25T22:37:30.727Z,21.38
2022-08-25T22:39:58.031Z,21.50
2022-08-25T22:42:25.911Z,21.63
2022-08-25T22:44:54.034Z,21.44
2022-08-25T22:47:21.606Z,21.38
2022-08-25T22:49:49.305Z,21.31
2022-08-25T22:52:16.537Z,21.44
2022-08-25T22:54:44.189Z,21.31
2022-08-25T22:57:12.181Z,21.38
2022-08-25T22:59:40.648Z,21.38
2022-08-25T23:02:08.656Z,21.25
2022-08-25T23:04:41.351Z,21.31
2022-08-25T23:07:11.469Z,21.31
2022-08-25T23:09:39.052Z,21.38
2022-08-25T23:12:07.242Z,21.31
2022-08-25T23:14:42.284Z,21.13
2022-08-25T23:17:11.748Z,21.25
2022-08-25T23:19:39.533Z,21.31
2022-08-25T23:22:10.581Z,21.25
2022-08-25T23:24:45.404Z,21.13
2022-08-25T23:27:16.684Z,21.13
2022-08-25T23:29:48.276Z,20.94
2022-08-25T23:32:18.511Z,20.94
2022-08-25T23:34:47.234Z,20.94
2022-08-25T23:37:18.759Z,21.00
2022-08-25T23:39:50.035Z,20.88
2022-08-25T23:42:19.448Z,20.75
2022-08-25T23:44:48.043Z,20.94
2022-08-25T23:47:16.241Z,20.88
2022-08-25T23:49:44.766Z,20.63
2022-08-25T23:52:12.180Z,20.75
2022-08-25T23:54:39.781Z,20.75
2022-08-25T23:57:07.126Z,20.63
2022-08-25T23:59:36.428Z,20.75
